createdAt,value
2017-06-04T00:00:14.439Z,91.20
2017-06-04T00:02:42.741Z,91.30
2017-06-04T00:05:11.046Z,91.40
2017-06-04T00:07:38.589Z,91.30
2017-06-04T00:10:06.130Z,91.20
2017-06-04T00:12:34.419Z,91.80
2017-06-04T00:15:01.956Z,91.80
2017-06-04T00:17:29.478Z,91.60
2017-06-04T00:19:57.001Z,91.70
2017-06-04T00:22:26.236Z,91.10
2017-06-04T00:24:53.802Z,91.10
2017-06-04T00:27:22.150Z,92.00
2017-06-04T00:29:49.717Z,91.90
2017-06-04T00:32:18.018Z,91.80
2017-06-04T00:34:45.549Z,91.80
2017-06-04T00:37:13.075Z,91.80
2017-06-04T00:39:41.403Z,92.30
2017-06-04T00:42:09.686Z,92.20
2017-06-04T00:44:37.294Z,92.10
2017-06-04T00:47:05.597Z,91.60
2017-06-04T00:49:33.142Z,91.60
2017-06-04T00:52:01.482Z,91.60
2017-06-04T00:54:29.765Z,91.30
2017-06-04T00:56:57.330Z,91.30
2017-06-04T00:59:24.878Z,91.30
2017-06-04T01:01:53.189Z,91.80
2017-06-04T01:04:20.703Z,91.80
2017-06-04T01:06:48.234Z,91.20
2017-06-04T01:09:15.761Z,91.40
2017-06-04T01:11:43.323Z,91.20
2017-06-04T01:14:11.606Z,91.50
2017-06-04T01:16:39.923Z,91.60
2017-06-04T01:19:07.479Z,91.60
2017-06-04T01:21:35.013Z,91.60
2017-06-04T01:24:03.295Z,91.30
2017-06-04T01:26:30.835Z,91.30
2017-06-04T01:28:58.414Z,91.50
2017-06-04T01:31:25.950Z,91.50
2017-06-04T01:33:54.273Z,91.40
2017-06-04T01:36:21.799Z,91.40
2017-06-04T01:38:49.326Z,91.50
2017-06-04T01:41:16.853Z,91.60
2017-06-04T01:43:45.152Z,92.40
2017-06-04T01:46:13.520Z,92.50
2017-06-04T01:48:41.841Z,93.00
2017-06-04T01:51:09.410Z,93.00
2017-06-04T01:53:37.739Z,93.40
2017-06-04T01:56:05.319Z,93.40
2017-06-04T01:58:32.840Z,93.90
2017-06-04T02:01:00.382Z,93.80
2017-06-04T02:03:28.714Z,93.40
2017-06-04T02:05:56.283Z,93.40
2017-06-04T02:08:23.814Z,93.50
2017-06-04T02:10:51.357Z,93.60
2017-06-04T02:13:19.651Z,93.90
2017-06-04T02:15:47.970Z,93.80
2017-06-04T02:18:15.514Z,93.80
2017-06-04T02:20:43.061Z,94.00
2017-06-04T02:23:11.370Z,93.60
2017-06-04T02:25:38.909Z,93.60
2017-06-04T02:28:06.443Z,93.70
2017-06-04T02:30:33.984Z,93.90
2017-06-04T02:33:02.289Z,94.00
2017-06-04T02:35:29.818Z,94.00
2017-06-04T02:37:57.338Z,94.10
2017-06-04T02:40:24.870Z,93.80
2017-06-04T02:42:53.177Z,92.60
2017-06-04T02:45:20.713Z,92.50
2017-06-04T02:47:48.253Z,92.20
2017-06-04T02:50:15.806Z,92.40
2017-06-04T02:52:44.080Z,92.60
2017-06-04T02:55:11.633Z,92.60
2017-06-04T02:57:42.302Z,93.30
2017-06-04T03:00:09.830Z,93.50
2017-06-04T03:02:38.117Z,93.80
2017-06-04T03:05:05.671Z,93.80
2017-06-04T03:07:33.200Z,94.00
2017-06-04T03:10:00.737Z,93.80
2017-06-04T03:12:29.047Z,93.20
2017-06-04T03:14:56.557Z,93.10
2017-06-04T03:17:24.080Z,93.40
2017-06-04T03:19:51.627Z,93.10
2017-06-04T03:22:19.917Z,93.10
2017-06-04T03:24:47.484Z,93.10
2017-06-04T03:27:15.771Z,93.20
2017-06-04T03:29:43.284Z,93.20
2017-06-04T03:32:11.574Z,93.30
2017-06-04T03:34:39.083Z,93.30
2017-06-04T03:37:07.367Z,93.30
2017-06-04T03:39:34.881Z,93.20
2017-06-04T03:42:03.174Z,92.90
2017-06-04T03:44:30.735Z,92.90
2017-06-04T03:46:58.241Z,93.20
2017-06-04T03:49:25.777Z,93.20
2017-06-04T03:51:54.050Z,93.10
2017-06-04T03:54:21.570Z,93.00
2017-06-04T03:56:49.105Z,93.10
2017-06-04T03:59:16.601Z,93.40
2017-06-04T04:01:44.125Z,93.30
2017-06-04T04:04:12.389Z,93.20
2017-06-04T04:09:13.351Z,93.30
2017-06-04T04:11:40.881Z,93.40
2017-06-04T04:14:09.203Z,93.30
2017-06-04T04:16:36.714Z,93.30
2017-06-04T04:19:04.258Z,93.00
2017-06-04T04:21:32.533Z,92.90
2017-06-04T04:24:00.821Z,92.90
2017-06-04T04:26:28.338Z,92.90
2017-06-04T04:28:55.858Z,93.20
2017-06-04T04:31:23.370Z,93.10
2017-06-04T04:33:51.670Z,93.10
2017-06-04T04:42:04.811Z,93.10
2017-06-04T04:44:32.363Z,93.10
2017-06-04T04:46:59.905Z,93.10
2017-06-04T04:49:27.410Z,93.10
2017-06-04T04:51:55.723Z,93.10
2017-06-04T04:54:23.246Z,93.10
2017-06-04T04:56:50.798Z,93.30
2017-06-04T04:59:18.324Z,93.20
2017-06-04T05:01:45.838Z,93.30
2017-06-04T05:04:14.153Z,90.90
2017-06-04T05:06:41.694Z,90.80
2017-06-04T05:09:09.989Z,91.40
2017-06-04T05:11:37.499Z,91.40
2017-06-04T05:14:05.841Z,91.40
2017-06-04T05:16:34.129Z,91.70
2017-06-04T05:19:02.427Z,92.30
2017-06-04T05:21:29.959Z,92.20
2017-06-04T05:24:04.161Z,91.90
2017-06-04T05:26:31.697Z,91.90
2017-06-04T05:28:59.226Z,92.30
2017-06-04T05:31:26.762Z,92.20
2017-06-04T05:33:55.077Z,92.30
2017-06-04T05:36:22.627Z,92.20
2017-06-04T05:38:50.139Z,92.20
2017-06-04T05:41:17.643Z,92.10
2017-06-04T05:43:45.948Z,91.60
2017-06-04T05:46:13.458Z,91.60
2017-06-04T05:48:40.997Z,91.20
2017-06-04T05:51:08.531Z,91.30
2017-06-04T05:53:36.826Z,91.20
2017-06-04T05:56:04.329Z,91.20
2017-06-04T05:58:31.852Z,91.20
2017-06-04T06:00:59.378Z,91.00
2017-06-04T06:03:27.649Z,91.00
2017-06-04T06:05:55.186Z,91.00
2017-06-04T06:08:22.696Z,91.20
2017-06-04T06:28:09.374Z,91.70
2017-06-04T06:30:36.907Z,91.70
2017-06-04T06:33:19.645Z,91.80
2017-06-04T06:35:47.975Z,91.40
2017-06-04T06:38:22.006Z,91.40
2017-06-04T06:40:49.537Z,91.40
2017-06-04T06:43:17.811Z,90.80
2017-06-04T06:51:32.339Z,90.10
2017-06-04T06:54:00.761Z,89.30
2017-06-04T06:56:28.342Z,89.30
2017-06-04T06:58:55.887Z,88.20
2017-06-04T07:01:23.406Z,89.40
2017-06-04T07:03:51.705Z,89.70
2017-06-04T08:12:45.170Z,85.10
2017-06-04T08:15:13.547Z,84.00
2017-06-04T08:17:41.082Z,84.00
2017-06-04T08:20:08.590Z,85.40
2017-06-04T08:22:36.874Z,83.70
2017-06-04T08:25:04.459Z,84.50
2017-06-04T08:27:31.962Z,82.60
2017-06-04T08:29:59.468Z,81.90
2017-06-04T08:32:27.766Z,82.30
2017-06-04T08:34:56.092Z,84.30
2017-06-04T08:37:23.633Z,84.30
2017-06-04T08:39:51.162Z,85.30
2017-06-04T08:42:22.126Z,86.60
2017-06-04T10:14:16.940Z,48.80
2017-06-04T10:16:46.576Z,45.60
2017-06-04T10:19:14.929Z,45.50
2017-06-04T10:21:42.519Z,42.60
2017-06-04T10:24:12.688Z,40.00
2017-06-04T10:26:40.351Z,40.00
2017-06-04T10:32:03.807Z,39.10
2017-06-04T10:34:32.376Z,41.70
2017-06-04T10:37:00.036Z,41.70
2017-06-04T10:39:28.662Z,46.00
2017-06-04T10:41:57.646Z,46.20
2017-06-04T10:44:25.306Z,46.20
2017-06-04T10:46:52.909Z,43.60
2017-06-04T10:49:20.468Z,40.60
2017-06-04T10:51:49.655Z,37.20
2017-06-04T10:54:17.254Z,37.20
2017-06-04T10:56:44.852Z,37.80
2017-06-04T10:59:12.508Z,38.60
2017-06-04T11:01:40.135Z,38.40
2017-06-04T11:04:08.520Z,42.40
2017-06-04T11:06:36.141Z,42.40
2017-06-04T11:09:04.731Z,45.50
2017-06-04T11:11:33.120Z,49.10
2017-06-04T11:14:01.851Z,50.50
2017-06-04T11:16:29.445Z,50.50
2017-06-04T11:18:57.010Z,51.50
2017-06-04T11:21:24.582Z,49.90
2017-06-04T11:23:53.235Z,47.10
2017-06-04T11:26:20.853Z,47.20
2017-06-04T11:28:48.445Z,50.30
2017-06-04T11:31:16.065Z,48.50
2017-06-04T11:33:44.490Z,48.30
2017-06-04T11:36:12.046Z,48.40
2017-06-04T11:38:39.586Z,48.70
2017-06-04T11:41:07.155Z,50.20
2017-06-04T11:43:35.442Z,48.50
2017-06-04T11:46:02.998Z,48.50
2017-06-04T11:48:30.575Z,48.60
2017-06-04T11:50:58.113Z,48.30
2017-06-04T11:53:26.444Z,51.50
2017-06-04T11:55:54.038Z,51.50
2017-06-04T11:58:22.350Z,50.00
2017-06-04T12:00:49.914Z,49.90
2017-06-04T12:03:18.191Z,52.50
2017-06-04T12:05:45.727Z,52.40
2017-06-04T12:08:14.047Z,51.30
2017-06-04T12:10:41.624Z,51.30
2017-06-04T12:13:09.968Z,51.30
2017-06-04T12:15:37.533Z,51.20
2017-06-04T12:18:05.064Z,51.40
2017-06-04T12:20:32.567Z,50.00
2017-06-04T12:23:00.898Z,51.10
2017-06-04T12:25:28.424Z,51.20
2017-06-04T12:27:56.695Z,49.50
2017-06-04T12:30:24.233Z,49.30
2017-06-04T12:32:53.009Z,48.70
2017-06-04T12:35:20.615Z,48.70
2017-06-04T12:37:48.274Z,50.60
2017-06-04T12:40:15.901Z,49.80
2017-06-04T12:42:44.237Z,49.90
2017-06-04T12:45:11.818Z,49.80
2017-06-04T12:47:39.346Z,49.50
2017-06-04T12:50:06.879Z,50.60
2017-06-04T12:52:35.241Z,49.80
2017-06-04T12:55:02.786Z,49.80
2017-06-04T12:57:30.337Z,49.30
2017-06-04T12:59:57.892Z,48.70
2017-06-04T13:02:26.204Z,49.90
2017-06-04T13:04:53.754Z,49.90
2017-06-04T13:07:21.276Z,49.00
2017-06-04T13:09:48.848Z,49.40
2017-06-04T13:12:17.122Z,45.70
2017-06-04T13:14:44.640Z,45.60
2017-06-04T13:17:12.230Z,47.50
2017-06-04T13:25:29.306Z,50.40
2017-06-04T13:27:56.830Z,52.50
2017-06-04T13:30:24.418Z,49.30
2017-06-04T13:32:52.698Z,50.00
2017-06-04T13:35:20.269Z,49.90
2017-06-04T13:37:47.791Z,48.00
2017-06-04T13:40:15.336Z,49.00
2017-06-04T13:42:43.612Z,47.20
2017-06-04T13:45:11.205Z,47.10
2017-06-04T13:47:38.733Z,48.20
2017-06-04T13:50:06.295Z,47.20
2017-06-04T13:52:34.571Z,47.00
2017-06-04T13:55:03.130Z,47.00
2017-06-04T13:57:37.605Z,48.50
2017-06-04T14:00:05.153Z,46.70
2017-06-04T14:02:33.504Z,44.80
2017-06-04T14:05:01.015Z,44.70
2017-06-04T14:07:28.543Z,46.80
2017-06-04T14:09:56.099Z,45.70
2017-06-04T14:12:24.397Z,46.40
2017-06-04T14:15:29.607Z,46.40
2017-06-04T14:17:57.132Z,45.70
2017-06-04T14:20:24.640Z,43.90
2017-06-04T14:22:52.226Z,44.10
2017-06-04T14:25:23.361Z,45.00
2017-06-04T14:27:50.896Z,44.80
2017-06-04T14:30:18.519Z,44.80
2017-06-04T14:32:46.832Z,43.80
2017-06-04T14:35:14.399Z,43.70
2017-06-04T14:37:42.806Z,42.80
2017-06-04T14:40:10.466Z,46.00
2017-06-04T14:42:38.036Z,45.90
2017-06-04T14:45:06.683Z,46.40
2017-06-04T14:47:34.242Z,46.40
2017-06-04T14:50:01.766Z,45.00
2017-06-04T14:52:30.090Z,45.60
2017-06-04T14:54:57.598Z,45.50
2017-06-04T14:57:25.903Z,44.30
2017-06-04T14:59:53.410Z,44.70
2017-06-04T15:02:20.965Z,44.10
2017-06-04T15:04:48.463Z,45.40
2017-06-04T15:07:16.801Z,46.50
2017-06-04T15:09:44.307Z,46.40
2017-06-04T15:12:12.601Z,45.60
2017-06-04T15:14:40.166Z,45.60
2017-06-04T15:17:07.701Z,43.90
2017-06-04T15:19:35.214Z,44.70
2017-06-04T15:22:02.711Z,47.20
2017-06-04T15:24:31.010Z,47.70
2017-06-04T15:26:58.522Z,47.70
2017-06-04T15:29:26.069Z,45.40
2017-06-04T15:31:53.610Z,45.90
2017-06-04T15:34:21.125Z,47.90
2017-06-04T15:36:54.340Z,45.40
2017-06-04T15:39:25.706Z,45.70
2017-06-04T15:44:51.666Z,45.20
2017-06-04T15:47:22.686Z,45.80
2017-06-04T15:49:51.378Z,46.00
2017-06-04T15:52:24.933Z,44.90
2017-06-04T15:54:58.712Z,44.30
2017-06-04T15:57:32.697Z,47.10
2017-06-04T16:00:04.198Z,44.50
2017-06-04T16:02:34.867Z,44.30
2017-06-04T16:05:08.558Z,45.20
2017-06-04T16:07:39.523Z,45.40
2017-06-04T16:10:13.203Z,45.80
2017-06-04T16:12:44.382Z,46.30
2017-06-04T16:15:17.765Z,46.60
2017-06-04T16:17:51.435Z,46.30
2017-06-04T16:20:22.678Z,46.10
2017-06-04T16:22:53.462Z,46.90
2017-06-04T16:25:37.382Z,46.80
2017-06-04T16:28:04.909Z,46.80
2017-06-04T16:30:32.478Z,46.80
2017-06-04T16:33:00.004Z,47.00
2017-06-04T16:35:27.523Z,45.90
2017-06-04T16:37:55.181Z,45.50
2017-06-04T16:40:22.742Z,46.50
2017-06-04T16:42:50.294Z,45.80
2017-06-04T16:45:17.811Z,45.30
2017-06-04T16:47:45.391Z,46.50
2017-06-04T17:39:20.264Z,42.70
2017-06-04T17:41:54.208Z,40.60
2017-06-04T17:44:21.743Z,41.10
2017-06-04T17:46:49.256Z,39.90
2017-06-04T17:49:16.767Z,40.40
2017-06-04T17:51:44.325Z,40.10
2017-06-04T17:54:11.905Z,40.80
2017-06-04T17:56:39.714Z,41.60
2017-06-04T17:59:07.305Z,42.50
2017-06-04T18:01:34.830Z,41.70
2017-06-04T18:04:02.343Z,42.60
2017-06-04T18:06:29.952Z,43.30
2017-06-04T18:08:57.450Z,43.50
2017-06-04T18:11:24.968Z,43.70
2017-06-04T18:13:52.553Z,44.10
2017-06-04T18:16:20.088Z,45.00
2017-06-04T18:18:47.652Z,44.90
2017-06-04T18:21:15.199Z,45.30
2017-06-04T18:23:42.808Z,46.10
2017-06-04T18:26:10.375Z,45.70
2017-06-04T18:28:37.987Z,45.50
2017-06-04T18:31:05.573Z,46.80
2017-06-04T18:33:33.114Z,46.60
2017-06-04T18:36:00.815Z,46.20
2017-06-04T18:38:28.396Z,46.30
2017-06-04T18:40:56.835Z,46.70
2017-06-04T18:46:18.063Z,47.40
2017-06-04T18:48:45.723Z,48.10
2017-06-04T18:51:13.886Z,48.80
2017-06-04T18:53:41.517Z,47.70
2017-06-04T18:56:10.129Z,48.30
2017-06-04T18:58:38.473Z,49.70
2017-06-04T19:01:07.526Z,49.60
2017-06-04T19:03:35.188Z,49.60
2017-06-04T19:06:02.809Z,49.90
2017-06-04T19:08:30.425Z,50.20
2017-06-04T19:10:57.979Z,50.10
2017-06-04T19:13:25.535Z,50.60
2017-06-04T19:15:53.064Z,51.70
2017-06-04T19:18:20.660Z,51.40
2017-06-04T19:20:48.181Z,51.30
2017-06-04T19:23:16.489Z,52.80
2017-06-04T19:25:45.170Z,52.80
2017-06-04T19:28:13.080Z,53.70
2017-06-04T19:30:41.042Z,54.80
2017-06-04T19:38:54.607Z,55.70
2017-06-04T19:41:22.405Z,55.50
2017-06-04T19:43:49.972Z,57.90
2017-06-04T19:46:17.503Z,57.60
2017-06-04T19:48:45.061Z,56.90
2017-06-04T19:51:12.681Z,57.70
2017-06-04T19:53:40.246Z,58.80
2017-06-04T19:56:09.672Z,59.10
2017-06-04T19:58:37.234Z,59.00
2017-06-04T20:01:04.786Z,59.90
2017-06-04T20:03:33.124Z,61.10
2017-06-04T20:06:00.704Z,61.10
2017-06-04T20:08:28.252Z,61.10
2017-06-04T20:10:55.780Z,63.90
2017-06-04T20:13:23.322Z,62.10
2017-06-04T20:15:50.879Z,60.10
2017-06-04T20:18:18.427Z,59.50
2017-06-04T20:20:47.692Z,61.50
2017-06-04T20:23:15.199Z,61.50
2017-06-04T20:25:42.732Z,62.50
2017-06-04T20:28:11.139Z,61.40
2017-06-04T20:30:38.668Z,61.40
2017-06-04T20:33:06.251Z,65.50
2017-06-04T20:35:33.790Z,63.90
2017-06-04T20:38:01.316Z,63.10
2017-06-04T20:40:29.039Z,63.40
2017-06-04T20:42:56.564Z,64.80
2017-06-04T20:45:24.149Z,67.00
2017-06-04T20:47:51.667Z,66.70
2017-06-04T20:50:19.226Z,66.60
2017-06-04T20:52:46.792Z,65.80
2017-06-04T20:55:14.341Z,68.70
2017-06-04T20:57:41.856Z,67.00
2017-06-04T21:00:09.403Z,66.90
2017-06-04T21:02:43.018Z,66.30
2017-06-04T21:05:11.336Z,66.70
2017-06-04T21:07:38.884Z,66.70
2017-06-04T21:10:06.425Z,69.20
2017-06-04T21:12:33.959Z,69.20
2017-06-04T21:15:01.479Z,68.90
2017-06-04T21:17:29.018Z,69.60
2017-06-04T21:19:56.542Z,69.50
2017-06-04T21:22:24.077Z,69.50
2017-06-04T21:24:52.807Z,70.60
2017-06-04T21:27:20.394Z,71.40
2017-06-04T21:29:48.021Z,71.70
2017-06-04T21:32:15.586Z,71.00
2017-06-04T21:34:43.353Z,71.70
2017-06-04T21:37:11.658Z,71.50
2017-06-04T21:39:39.170Z,71.40
2017-06-04T21:42:06.766Z,72.00
2017-06-04T21:44:34.286Z,71.50
2017-06-04T21:47:01.806Z,70.90
2017-06-04T21:49:29.350Z,71.40
2017-06-04T21:51:56.879Z,73.70
2017-06-04T21:54:24.425Z,72.20
2017-06-04T21:56:51.967Z,72.60
2017-06-04T21:59:20.825Z,72.00
2017-06-04T22:01:48.352Z,74.20
2017-06-04T22:04:15.874Z,74.60
2017-06-04T22:06:43.442Z,74.10
2017-06-04T22:09:11.007Z,73.80
2017-06-04T22:11:38.590Z,72.70
2017-06-04T22:14:06.149Z,73.40
2017-06-04T22:16:33.658Z,74.80
2017-06-04T22:19:01.197Z,75.80
2017-06-04T22:21:28.766Z,74.80
2017-06-04T22:23:57.081Z,75.90
2017-06-04T22:26:24.628Z,75.90
2017-06-04T22:28:52.199Z,76.20
2017-06-04T22:31:19.809Z,75.50
2017-06-04T22:33:47.329Z,74.90
2017-06-04T22:36:14.897Z,75.30
2017-06-04T22:38:42.486Z,74.20
2017-06-04T22:41:10.025Z,74.60
2017-06-04T22:43:37.566Z,76.60
2017-06-04T22:46:05.096Z,75.30
2017-06-04T22:48:32.642Z,76.00
2017-06-04T22:51:00.952Z,76.70
2017-06-04T22:53:28.485Z,76.50
2017-06-04T22:55:56.777Z,76.70
2017-06-04T22:58:24.293Z,76.70
2017-06-04T23:00:51.848Z,77.10
2017-06-04T23:03:25.763Z,79.20
2017-06-04T23:05:53.343Z,77.70
2017-06-04T23:08:24.122Z,76.90
2017-06-04T23:10:51.645Z,78.40
2017-06-04T23:13:19.922Z,76.80
2017-06-04T23:15:48.187Z,77.70
2017-06-04T23:18:16.472Z,77.30
2017-06-04T23:20:44.782Z,75.60
2017-06-04T23:23:12.302Z,75.50
2017-06-04T23:25:41.603Z,78.10
2017-06-04T23:28:09.881Z,76.90
2017-06-04T23:30:37.403Z,76.90
2017-06-04T23:33:04.900Z,76.20
2017-06-04T23:35:33.218Z,76.80
2017-06-04T23:38:00.751Z,76.70
2017-06-04T23:40:29.030Z,76.40
2017-06-04T23:42:56.606Z,76.40
2017-06-04T23:45:24.145Z,76.10
2017-06-04T23:47:52.433Z,77.50
2017-06-04T23:50:19.942Z,76.80
2017-06-04T23:52:47.477Z,75.90
2017-06-04T23:55:15.007Z,76.50
2017-06-04T23:57:43.301Z,75.70
